createdAt,value
2022-09-13T00:02:21.604Z,1013.91
2022-09-13T00:07:28.631Z,1013.89
2022-09-13T00:12:35.832Z,1013.91
2022-09-13T00:17:43.034Z,1013.75
2022-09-13T00:22:50.232Z,1013.72
2022-09-13T00:27:57.386Z,1013.66
2022-09-13T00:33:04.843Z,1013.55
2022-09-13T00:38:11.827Z,1013.49
2022-09-13T00:43:18.976Z,1013.52
2022-09-13T00:48:26.151Z,1013.47
2022-09-13T00:53:33.534Z,1013.41
2022-09-13T00:58:40.745Z,1013.57
2022-09-13T01:03:48.223Z,1013.52
2022-09-13T01:08:55.177Z,1013.42
2022-09-13T01:14:02.362Z,1013.38
2022-09-13T01:19:09.689Z,1013.47
2022-09-13T01:24:16.769Z,1013.41
2022-09-13T01:29:23.980Z,1013.33
2022-09-13T01:34:31.200Z,1013.40
2022-09-13T01:39:38.426Z,1013.36
2022-09-13T01:44:45.694Z,1013.44
2022-09-13T01:49:52.935Z,1013.45
2022-09-13T01:55:00.115Z,1013.45
2022-09-13T02:00:07.300Z,1013.45
2022-09-13T02:05:14.493Z,1013.37
2022-09-13T02:10:21.728Z,1013.42
2022-09-13T02:15:28.898Z,1013.43
2022-09-13T02:20:36.166Z,1013.40
2022-09-13T02:25:43.347Z,1013.34
2022-09-13T02:30:50.533Z,1013.46
2022-09-13T02:35:57.742Z,1013.43
2022-09-13T02:41:05.453Z,1013.34
2022-09-13T02:46:12.653Z,1013.38
2022-09-13T02:51:19.869Z,1013.52
2022-09-13T02:56:27.038Z,1013.38
2022-09-13T03:01:34.331Z,1013.47
2022-09-13T03:06:41.518Z,1013.50
2022-09-13T03:11:48.692Z,1013.54
2022-09-13T03:16:56.045Z,1013.51
2022-09-13T03:22:03.197Z,1013.45
2022-09-13T03:27:10.323Z,1013.41
2022-09-13T03:32:17.587Z,1013.34
2022-09-13T03:37:24.851Z,1013.39
2022-09-13T03:42:32.040Z,1013.50
2022-09-13T03:47:39.209Z,1013.46
2022-09-13T03:52:46.718Z,1013.49
2022-09-13T03:57:54.049Z,1013.45
2022-09-13T04:03:01.254Z,1013.52
2022-09-13T04:08:08.506Z,1013.42
2022-09-13T04:13:15.664Z,1013.41
2022-09-13T04:18:22.849Z,1013.47
2022-09-13T04:23:30.166Z,1013.51
2022-09-13T04:28:37.225Z,1013.52
2022-09-13T04:33:44.408Z,1013.61
2022-09-13T04:38:51.598Z,1013.50
2022-09-13T04:43:58.814Z,1013.47
2022-09-13T04:49:05.977Z,1013.50
2022-09-13T04:54:15.546Z,1013.66
2022-09-13T04:59:20.456Z,1013.77
2022-09-13T05:04:27.697Z,1013.77
2022-09-13T05:09:34.911Z,1013.80
2022-09-13T05:14:42.090Z,1013.74
2022-09-13T05:19:49.331Z,1013.67
2022-09-13T05:24:56.618Z,1013.67
2022-09-13T05:30:03.748Z,1013.69
2022-09-13T05:35:10.927Z,1013.71
2022-09-13T05:40:18.188Z,1013.71
2022-09-13T05:45:25.317Z,1013.61
2022-09-13T05:50:57.202Z,1013.87
2022-09-13T05:55:39.782Z,1013.92
2022-09-13T06:00:46.922Z,1013.79
2022-09-13T06:05:54.160Z,1013.78
2022-09-13T06:11:01.405Z,1013.79
2022-09-13T06:16:08.555Z,1013.79
2022-09-13T06:21:15.707Z,1013.75
2022-09-13T06:26:22.946Z,1013.73
2022-09-13T06:31:30.306Z,1013.64
2022-09-13T06:36:37.359Z,1013.51
2022-09-13T06:41:44.723Z,1013.57
2022-09-13T06:46:51.808Z,1013.62
2022-09-13T06:51:59.076Z,1013.55
2022-09-13T06:57:06.403Z,1013.56
2022-09-13T07:02:13.577Z,1013.43
2022-09-13T07:07:20.733Z,1013.36
2022-09-13T07:12:28.004Z,1013.31
2022-09-13T07:17:35.173Z,1013.19
2022-09-13T07:22:42.327Z,1013.16
2022-09-13T07:27:49.594Z,1013.15
2022-09-13T07:32:56.719Z,1013.26
2022-09-13T07:38:03.923Z,1013.29
2022-09-13T07:43:11.170Z,1013.28
2022-09-13T07:48:18.393Z,1013.31
2022-09-13T07:53:25.805Z,1013.31
2022-09-13T07:58:33.109Z,1013.27
2022-09-13T08:03:40.176Z,1013.12
2022-09-13T08:08:47.398Z,1012.99
2022-09-13T08:13:54.648Z,1012.92
2022-09-13T08:19:01.811Z,1012.92
2022-09-13T08:24:09.030Z,1012.98
2022-09-13T08:29:16.610Z,1012.96
2022-09-13T08:34:23.833Z,1012.93
2022-09-13T08:39:33.446Z,1013.02
2022-09-13T08:44:38.196Z,1012.99
2022-09-13T08:49:45.351Z,1012.90
2022-09-13T08:54:57.482Z,1012.78
2022-09-13T08:59:59.866Z,1012.82
2022-09-13T09:05:07.065Z,1012.78
2022-09-13T09:10:14.222Z,1012.82
2022-09-13T09:15:21.485Z,1012.80
2022-09-13T09:20:28.645Z,1012.72
2022-09-13T09:25:35.839Z,1012.75
2022-09-13T09:30:43.106Z,1012.75
2022-09-13T09:35:50.191Z,1012.76
2022-09-13T09:40:57.396Z,1012.65
2022-09-13T09:46:04.689Z,1012.66
2022-09-13T09:51:11.755Z,1012.67
2022-09-13T09:56:18.913Z,1012.60
2022-09-13T10:01:26.250Z,1012.65
2022-09-13T10:06:33.363Z,1012.70
2022-09-13T10:11:40.605Z,1012.70
2022-09-13T10:16:47.893Z,1012.64
2022-09-13T10:21:55.031Z,1012.61
2022-09-13T10:27:02.256Z,1012.59
2022-09-13T10:32:09.724Z,1012.57
2022-09-13T10:37:16.918Z,1012.55
2022-09-13T10:42:24.133Z,1012.43
2022-09-13T10:47:31.448Z,1012.41
2022-09-13T10:52:38.598Z,1012.30
2022-09-13T10:57:45.839Z,1012.23
2022-09-13T11:02:53.069Z,1012.09
2022-09-13T11:08:00.261Z,1012.01
2022-09-13T11:13:07.475Z,1011.95
2022-09-13T11:18:14.739Z,1011.92
2022-09-13T11:23:21.867Z,1011.93
2022-09-13T11:28:29.083Z,1011.98
2022-09-13T11:33:36.390Z,1012.02
2022-09-13T11:38:43.480Z,1011.95
2022-09-13T11:43:50.790Z,1011.91
2022-09-13T11:48:58.026Z,1011.83
2022-09-13T11:54:05.152Z,1011.73
2022-09-13T11:59:15.600Z,1011.68
2022-09-13T12:04:19.675Z,1011.56
2022-09-13T12:09:26.906Z,1011.51
2022-09-13T12:14:34.162Z,1011.46
2022-09-13T12:19:41.460Z,1011.43
2022-09-13T12:24:48.565Z,1011.42
2022-09-13T12:29:55.736Z,1011.45
2022-09-13T12:35:03.026Z,1011.45
2022-09-13T12:40:10.311Z,1011.40
2022-09-13T12:45:17.432Z,1011.33
2022-09-13T12:55:46.486Z,1011.22
2022-09-13T13:00:39.068Z,1011.11
2022-09-13T13:05:46.188Z,1010.96
2022-09-13T13:10:53.329Z,1010.91
2022-09-13T13:16:00.547Z,1010.95
2022-09-13T13:21:07.661Z,1010.91
2022-09-13T13:26:14.802Z,1011.00
2022-09-13T13:31:22.125Z,1011.03
2022-09-13T13:36:29.234Z,1011.05
2022-09-13T13:41:36.397Z,1011.00
2022-09-13T13:46:43.593Z,1010.95
2022-09-13T13:51:50.922Z,1010.87
2022-09-13T13:56:58.013Z,1010.82
2022-09-13T14:02:05.225Z,1010.79
2022-09-13T14:07:19.408Z,1010.70
2022-09-13T14:12:19.648Z,1010.61
2022-09-13T14:17:26.953Z,1010.60
2022-09-13T14:22:34.343Z,1010.52
2022-09-13T14:27:41.333Z,1010.37
2022-09-13T14:32:48.547Z,1010.36
2022-09-13T14:37:55.808Z,1010.35
2022-09-13T14:43:02.953Z,1010.28
2022-09-13T14:48:10.183Z,1010.27
2022-09-13T14:53:17.432Z,1010.18
2022-09-13T14:58:24.609Z,1010.13
2022-09-13T15:03:31.766Z,1010.15
2022-09-13T15:08:39.050Z,1010.19
2022-09-13T15:13:46.185Z,1010.22
2022-09-13T15:18:53.373Z,1010.24
2022-09-13T15:24:00.634Z,1010.24
2022-09-13T15:29:07.800Z,1010.25
2022-09-13T15:34:15.011Z,1010.30
2022-09-13T15:39:22.230Z,1010.18
2022-09-13T15:44:29.466Z,1010.18
2022-09-13T15:49:36.710Z,1010.08
2022-09-13T15:54:44.039Z,1010.08
2022-09-13T15:59:51.135Z,1010.02
2022-09-13T16:04:58.405Z,1009.93
2022-09-13T16:10:05.693Z,1009.92
2022-09-13T16:15:12.856Z,1009.88
2022-09-13T16:20:20.063Z,1009.87
2022-09-13T16:25:27.523Z,1009.78
2022-09-13T16:30:34.589Z,1009.83
2022-09-13T16:35:41.764Z,1009.82
2022-09-13T16:40:49.093Z,1009.83
2022-09-13T16:45:56.183Z,1009.86
2022-09-13T16:51:03.406Z,1009.84
2022-09-13T16:56:10.616Z,1009.77
2022-09-13T17:01:17.773Z,1009.76
2022-09-13T17:06:24.942Z,1009.66
2022-09-13T17:11:32.146Z,1009.58
2022-09-13T17:16:39.432Z,1009.66
2022-09-13T17:21:46.510Z,1009.57
2022-09-13T17:26:53.827Z,1009.55
2022-09-13T17:32:00.918Z,1009.53
2022-09-13T17:37:08.126Z,1009.57
2022-09-13T17:42:16.171Z,1009.66
2022-09-13T17:47:22.587Z,1009.61
2022-09-13T17:52:34.205Z,1009.63
2022-09-13T17:57:37.074Z,1009.75
2022-09-13T18:02:44.226Z,1009.70
2022-09-13T18:07:52.560Z,1009.69
2022-09-13T18:12:59.895Z,1009.71
2022-09-13T18:18:07.399Z,1009.70
2022-09-13T18:23:14.911Z,1009.71
2022-09-13T18:28:24.801Z,1009.68
2022-09-13T18:33:32.394Z,1009.58
2022-09-13T18:38:40.037Z,1009.63
2022-09-13T18:43:50.600Z,1009.65
2022-09-13T18:48:55.337Z,1009.64
2022-09-13T18:54:03.058Z,1009.67
2022-09-13T18:59:10.784Z,1009.69
2022-09-13T19:04:18.179Z,1009.68
2022-09-13T19:09:25.901Z,1009.69
2022-09-13T19:14:33.620Z,1009.69
2022-09-13T19:19:41.127Z,1009.72
2022-09-13T19:24:48.742Z,1009.76
2022-09-13T19:29:56.485Z,1009.72
2022-09-13T19:35:04.079Z,1009.78
2022-09-13T19:40:11.810Z,1009.92
2022-09-13T19:45:19.323Z,1009.94
2022-09-13T19:50:26.915Z,1009.96
2022-09-13T19:55:34.532Z,1009.97
2022-09-13T20:00:42.133Z,1009.95
2022-09-13T20:05:49.663Z,1009.93
2022-09-13T20:10:57.189Z,1009.87
2022-09-13T20:16:04.869Z,1009.87
2022-09-13T20:21:12.405Z,1009.82
2022-09-13T20:26:20.014Z,1009.90
2022-09-13T20:31:27.661Z,1009.91
2022-09-13T20:36:35.239Z,1009.98
2022-09-13T20:41:42.859Z,1010.01
2022-09-13T20:46:50.489Z,1010.07
2022-09-13T20:51:57.979Z,1010.17
2022-09-13T20:57:05.289Z,1010.21
2022-09-13T21:02:12.624Z,1010.28
2022-09-13T21:07:19.718Z,1010.20
2022-09-13T21:12:26.898Z,1010.22
2022-09-13T21:17:34.250Z,1010.12
2022-09-13T21:22:41.318Z,1010.18
2022-09-13T21:27:48.512Z,1010.18
2022-09-13T21:32:55.772Z,1010.11
2022-09-13T21:38:02.998Z,1010.17
2022-09-13T21:43:10.242Z,1010.18
2022-09-13T21:48:17.547Z,1010.23
2022-09-13T21:53:24.717Z,1010.25
2022-09-13T21:58:31.981Z,1010.35
2022-09-13T22:03:39.246Z,1010.38
2022-09-13T22:08:46.384Z,1010.29
2022-09-13T22:13:53.584Z,1010.26
2022-09-13T22:19:03.283Z,1010.10
2022-09-13T22:24:07.943Z,1010.05
2022-09-13T22:29:15.190Z,1010.04
2022-09-13T22:34:22.413Z,1010.01
2022-09-13T22:39:29.590Z,1010.02
2022-09-13T22:44:36.806Z,1009.97
2022-09-13T22:49:44.030Z,1009.99
2022-09-13T22:54:51.208Z,1009.89
2022-09-13T22:59:58.477Z,1009.85
2022-09-13T23:05:05.753Z,1009.76
2022-09-13T23:10:12.932Z,1009.52
2022-09-13T23:15:20.146Z,1009.42
2022-09-13T23:20:27.452Z,1009.60
2022-09-13T23:25:34.594Z,1009.77
2022-09-13T23:30:41.842Z,1009.67
2022-09-13T23:35:49.077Z,1009.55
2022-09-13T23:40:56.263Z,1009.62
2022-09-13T23:46:03.552Z,1009.60
2022-09-13T23:51:10.770Z,1009.65
2022-09-13T23:56:17.864Z,1009.75
